sensor_id;sensor_type;location;lat;lon;timestamp;P1;durP1;ratioP1;P2;durP2;ratioP2
65328;SDS011;51941;52.210;5.158;2023-04-25T00:01:58;15.75;;;3.67;;
65328;SDS011;51941;52.210;5.158;2023-04-25T00:04:24;11.65;;;3.50;;
65328;SDS011;51941;52.210;5.158;2023-04-25T00:06:53;14.85;;;3.42;;
65328;SDS011;51941;52.210;5.158;2023-04-25T00:09:20;12.45;;;2.70;;
65328;SDS011;51941;52.210;5.158;2023-04-25T00:11:47;16.05;;;3.17;;
65328;SDS011;51941;52.210;5.158;2023-04-25T00:14:14;16.60;;;3.17;;
65328;SDS011;51941;52.210;5.158;2023-04-25T00:16:41;15.98;;;3.22;;
65328;SDS011;51941;52.210;5.158;2023-04-25T00:19:09;17.95;;;3.72;;
65328;SDS011;51941;52.210;5.158;2023-04-25T00:21:35;13.05;;;2.75;;
65328;SDS011;51941;52.210;5.158;2023-04-25T00:26:33;14.65;;;3.13;;
65328;SDS011;51941;52.210;5.158;2023-04-25T00:29:00;16.27;;;3.22;;
65328;SDS011;51941;52.210;5.158;2023-04-25T00:31:27;16.27;;;3.08;;
65328;SDS011;51941;52.210;5.158;2023-04-25T00:33:54;11.90;;;2.70;;
65328;SDS011;51941;52.210;5.158;2023-04-25T00:36:21;13.63;;;2.97;;
65328;SDS011;51941;52.210;5.158;2023-04-25T00:38:48;10.57;;;2.70;;
65328;SDS011;51941;52.210;5.158;2023-04-25T00:41:19;13.73;;;3.20;;
65328;SDS011;51941;52.210;5.158;2023-04-25T00:43:46;14.55;;;2.78;;
65328;SDS011;51941;52.210;5.158;2023-04-25T00:46:14;10.68;;;2.80;;
65328;SDS011;51941;52.210;5.158;2023-04-25T00:48:41;15.48;;;2.85;;
65328;SDS011;51941;52.210;5.158;2023-04-25T00:51:08;13.85;;;2.88;;
65328;SDS011;51941;52.210;5.158;2023-04-25T00:53:39;17.80;;;3.65;;
65328;SDS011;51941;52.210;5.158;2023-04-25T00:56:06;14.07;;;2.58;;
65328;SDS011;51941;52.210;5.158;2023-04-25T00:58:34;12.93;;;2.90;;
65328;SDS011;51941;52.210;5.158;2023-04-25T01:01:01;8.95;;;2.45;;
65328;SDS011;51941;52.210;5.158;2023-04-25T01:03:28;9.43;;;2.25;;
65328;SDS011;51941;52.210;5.158;2023-04-25T01:06:00;11.02;;;2.75;;
65328;SDS011;51941;52.210;5.158;2023-04-25T01:08:27;14.57;;;2.97;;
65328;SDS011;51941;52.210;5.158;2023-04-25T01:10:55;13.63;;;2.60;;
65328;SDS011;51941;52.210;5.158;2023-04-25T01:13:22;10.88;;;2.50;;
65328;SDS011;51941;52.210;5.158;2023-04-25T01:15:50;12.27;;;3.08;;
65328;SDS011;51941;52.210;5.158;2023-04-25T01:18:17;14.48;;;2.45;;
65328;SDS011;51941;52.210;5.158;2023-04-25T01:20:45;10.10;;;2.75;;
65328;SDS011;51941;52.210;5.158;2023-04-25T01:23:14;13.02;;;3.13;;
65328;SDS011;51941;52.210;5.158;2023-04-25T01:25:42;12.20;;;2.50;;
65328;SDS011;51941;52.210;5.158;2023-04-25T01:28:09;11.45;;;2.33;;
65328;SDS011;51941;52.210;5.158;2023-04-25T01:30:36;11.77;;;2.30;;
65328;SDS011;51941;52.210;5.158;2023-04-25T01:33:04;14.88;;;3.20;;
65328;SDS011;51941;52.210;5.158;2023-04-25T01:35:32;9.85;;;2.72;;
65328;SDS011;51941;52.210;5.158;2023-04-25T01:37:59;7.85;;;2.33;;
65328;SDS011;51941;52.210;5.158;2023-04-25T01:40:28;11.85;;;2.53;;
65328;SDS011;51941;52.210;5.158;2023-04-25T01:42:56;9.45;;;2.60;;
65328;SDS011;51941;52.210;5.158;2023-04-25T01:45:23;10.32;;;2.80;;
65328;SDS011;51941;52.210;5.158;2023-04-25T01:47:50;9.60;;;2.45;;
65328;SDS011;51941;52.210;5.158;2023-04-25T01:50:17;13.15;;;2.78;;
65328;SDS011;51941;52.210;5.158;2023-04-25T01:52:45;12.50;;;2.85;;
65328;SDS011;51941;52.210;5.158;2023-04-25T01:55:12;7.55;;;2.40;;
65328;SDS011;51941;52.210;5.158;2023-04-25T01:57:56;11.30;;;2.85;;
65328;SDS011;51941;52.210;5.158;2023-04-25T02:00:38;7.15;;;2.38;;
65328;SDS011;51941;52.210;5.158;2023-04-25T02:03:06;12.35;;;2.97;;
65328;SDS011;51941;52.210;5.158;2023-04-25T02:05:34;7.60;;;2.53;;
65328;SDS011;51941;52.210;5.158;2023-04-25T02:08:02;10.07;;;2.70;;
65328;SDS011;51941;52.210;5.158;2023-04-25T02:10:30;11.93;;;2.90;;
65328;SDS011;51941;52.210;5.158;2023-04-25T02:13:09;12.80;;;3.30;;
65328;SDS011;51941;52.210;5.158;2023-04-25T02:15:44;9.65;;;2.90;;
65328;SDS011;51941;52.210;5.158;2023-04-25T02:18:15;8.25;;;2.70;;
65328;SDS011;51941;52.210;5.158;2023-04-25T02:20:46;12.38;;;3.30;;
65328;SDS011;51941;52.210;5.158;2023-04-25T02:23:13;9.13;;;2.88;;
65328;SDS011;51941;52.210;5.158;2023-04-25T02:25:41;9.90;;;2.65;;
65328;SDS011;51941;52.210;5.158;2023-04-25T02:28:07;13.15;;;3.10;;
65328;SDS011;51941;52.210;5.158;2023-04-25T02:30:36;13.07;;;3.13;;
65328;SDS011;51941;52.210;5.158;2023-04-25T02:33:06;11.45;;;2.70;;
65328;SDS011;51941;52.210;5.158;2023-04-25T02:35:35;11.20;;;3.10;;
65328;SDS011;51941;52.210;5.158;2023-04-25T02:38:01;12.98;;;3.28;;
65328;SDS011;51941;52.210;5.158;2023-04-25T02:40:28;13.48;;;3.00;;
65328;SDS011;51941;52.210;5.158;2023-04-25T02:42:55;10.90;;;3.20;;
65328;SDS011;51941;52.210;5.158;2023-04-25T02:45:25;13.60;;;3.50;;
65328;SDS011;51941;52.210;5.158;2023-04-25T02:47:54;8.43;;;3.10;;
65328;SDS011;51941;52.210;5.158;2023-04-25T02:50:20;12.43;;;3.00;;
65328;SDS011;51941;52.210;5.158;2023-04-25T02:52:47;10.45;;;3.05;;
65328;SDS011;51941;52.210;5.158;2023-04-25T02:55:19;11.90;;;2.67;;
65328;SDS011;51941;52.210;5.158;2023-04-25T02:57:46;10.07;;;2.72;;
65328;SDS011;51941;52.210;5.158;2023-04-25T03:00:21;8.80;;;3.03;;
65328;SDS011;51941;52.210;5.158;2023-04-25T03:02:48;10.73;;;2.83;;
65328;SDS011;51941;52.210;5.158;2023-04-25T03:05:16;10.68;;;3.03;;
65328;SDS011;51941;52.210;5.158;2023-04-25T03:07:43;14.40;;;2.80;;
65328;SDS011;51941;52.210;5.158;2023-04-25T03:10:10;14.13;;;2.85;;
65328;SDS011;51941;52.210;5.158;2023-04-25T03:12:37;12.48;;;2.83;;
65328;SDS011;51941;52.210;5.158;2023-04-25T03:15:05;12.77;;;2.58;;
65328;SDS011;51941;52.210;5.158;2023-04-25T03:17:35;14.40;;;2.78;;
65328;SDS011;51941;52.210;5.158;2023-04-25T03:20:02;17.38;;;2.80;;
65328;SDS011;51941;52.210;5.158;2023-04-25T03:22:35;11.07;;;2.17;;
65328;SDS011;51941;52.210;5.158;2023-04-25T03:25:02;10.88;;;2.20;;
65328;SDS011;51941;52.210;5.158;2023-04-25T03:27:30;13.40;;;2.30;;
65328;SDS011;51941;52.210;5.158;2023-04-25T03:29:56;9.82;;;2.35;;
65328;SDS011;51941;52.210;5.158;2023-04-25T03:32:23;14.73;;;2.30;;
65328;SDS011;51941;52.210;5.158;2023-04-25T03:34:50;16.38;;;2.45;;
65328;SDS011;51941;52.210;5.158;2023-04-25T03:37:23;10.70;;;2.30;;
65328;SDS011;51941;52.210;5.158;2023-04-25T03:39:51;11.70;;;2.05;;
65328;SDS011;51941;52.210;5.158;2023-04-25T03:42:20;9.90;;;1.80;;
65328;SDS011;51941;52.210;5.158;2023-04-25T03:44:47;8.07;;;1.77;;
65328;SDS011;51941;52.210;5.158;2023-04-25T03:47:15;8.93;;;1.90;;
65328;SDS011;51941;52.210;5.158;2023-04-25T03:49:41;14.70;;;2.30;;
65328;SDS011;51941;52.210;5.158;2023-04-25T03:52:09;9.88;;;1.70;;
65328;SDS011;51941;52.210;5.158;2023-04-25T03:54:39;12.95;;;2.28;;
65328;SDS011;51941;52.210;5.158;2023-04-25T03:57:25;8.85;;;1.90;;
65328;SDS011;51941;52.210;5.158;2023-04-25T03:59:53;9.45;;;1.80;;
65328;SDS011;51941;52.210;5.158;2023-04-25T04:02:20;12.43;;;1.63;;
65328;SDS011;51941;52.210;5.158;2023-04-25T04:04:47;9.55;;;1.85;;
65328;SDS011;51941;52.210;5.158;2023-04-25T04:07:14;13.25;;;2.30;;
65328;SDS011;51941;52.210;5.158;2023-04-25T04:09:43;10.00;;;1.77;;
65328;SDS011;51941;52.210;5.158;2023-04-25T04:12:17;10.98;;;1.85;;
65328;SDS011;51941;52.210;5.158;2023-04-25T04:14:45;10.10;;;1.85;;
65328;SDS011;51941;52.210;5.158;2023-04-25T04:17:12;7.43;;;1.75;;
65328;SDS011;51941;52.210;5.158;2023-04-25T04:19:39;8.13;;;1.52;;
65328;SDS011;51941;52.210;5.158;2023-04-25T04:22:25;10.05;;;1.92;;
65328;SDS011;51941;52.210;5.158;2023-04-25T04:24:55;9.23;;;1.55;;
65328;SDS011;51941;52.210;5.158;2023-04-25T04:27:42;8.85;;;2.05;;
65328;SDS011;51941;52.210;5.158;2023-04-25T04:30:22;9.95;;;1.65;;
65328;SDS011;51941;52.210;5.158;2023-04-25T04:32:55;7.75;;;1.83;;
65328;SDS011;51941;52.210;5.158;2023-04-25T04:35:22;9.65;;;1.40;;
65328;SDS011;51941;52.210;5.158;2023-04-25T04:37:50;9.63;;;1.50;;
65328;SDS011;51941;52.210;5.158;2023-04-25T04:40:19;9.32;;;1.70;;
65328;SDS011;51941;52.210;5.158;2023-04-25T04:43:01;8.52;;;1.50;;
65328;SDS011;51941;52.210;5.158;2023-04-25T04:45:54;9.32;;;1.95;;
65328;SDS011;51941;52.210;5.158;2023-04-25T04:48:31;13.43;;;2.22;;
65328;SDS011;51941;52.210;5.158;2023-04-25T04:51:17;11.50;;;2.33;;
65328;SDS011;51941;52.210;5.158;2023-04-25T04:53:47;7.30;;;1.50;;
65328;SDS011;51941;52.210;5.158;2023-04-25T04:56:33;8.95;;;1.33;;
65328;SDS011;51941;52.210;5.158;2023-04-25T04:59:19;7.15;;;1.70;;
65328;SDS011;51941;52.210;5.158;2023-04-25T05:01:59;8.32;;;1.27;;
65328;SDS011;51941;52.210;5.158;2023-04-25T05:04:46;7.03;;;1.33;;
65328;SDS011;51941;52.210;5.158;2023-04-25T05:07:39;6.00;;;1.13;;
65328;SDS011;51941;52.210;5.158;2023-04-25T05:10:23;7.90;;;1.45;;
65328;SDS011;51941;52.210;5.158;2023-04-25T05:12:55;8.70;;;1.25;;
65328;SDS011;51941;52.210;5.158;2023-04-25T05:15:42;6.82;;;1.08;;
65328;SDS011;51941;52.210;5.158;2023-04-25T05:18:30;6.15;;;1.10;;
65328;SDS011;51941;52.210;5.158;2023-04-25T05:21:08;4.35;;;1.10;;
65328;SDS011;51941;52.210;5.158;2023-04-25T05:24:01;3.50;;;0.90;;
65328;SDS011;51941;52.210;5.158;2023-04-25T05:26:34;6.47;;;1.52;;
65328;SDS011;51941;52.210;5.158;2023-04-25T05:29:30;5.72;;;1.17;;
65328;SDS011;51941;52.210;5.158;2023-04-25T05:32:20;9.40;;;1.88;;
65328;SDS011;51941;52.210;5.158;2023-04-25T05:34:49;6.10;;;1.63;;
65328;SDS011;51941;52.210;5.158;2023-04-25T05:37:24;5.72;;;1.30;;
65328;SDS011;51941;52.210;5.158;2023-04-25T05:39:58;11.13;;;1.48;;
65328;SDS011;51941;52.210;5.158;2023-04-25T05:42:35;5.60;;;1.13;;
65328;SDS011;51941;52.210;5.158;2023-04-25T05:45:26;8.15;;;1.33;;
65328;SDS011;51941;52.210;5.158;2023-04-25T05:47:55;5.68;;;1.15;;
65328;SDS011;51941;52.210;5.158;2023-04-25T05:50:50;7.55;;;1.30;;
65328;SDS011;51941;52.210;5.158;2023-04-25T05:53:52;8.15;;;1.20;;
65328;SDS011;51941;52.210;5.158;2023-04-25T05:56:19;9.88;;;1.50;;
65328;SDS011;51941;52.210;5.158;2023-04-25T05:58:50;6.93;;;1.30;;
65328;SDS011;51941;52.210;5.158;2023-04-25T06:01:16;7.97;;;1.40;;
65328;SDS011;51941;52.210;5.158;2023-04-25T06:03:44;9.20;;;1.73;;
65328;SDS011;51941;52.210;5.158;2023-04-25T06:06:12;7.13;;;1.40;;
65328;SDS011;51941;52.210;5.158;2023-04-25T06:08:39;6.07;;;1.42;;
65328;SDS011;51941;52.210;5.158;2023-04-25T06:11:06;7.65;;;1.30;;
65328;SDS011;51941;52.210;5.158;2023-04-25T06:13:33;8.25;;;1.30;;
65328;SDS011;51941;52.210;5.158;2023-04-25T06:15:59;6.95;;;1.20;;
65328;SDS011;51941;52.210;5.158;2023-04-25T06:18:26;8.18;;;1.40;;
65328;SDS011;51941;52.210;5.158;2023-04-25T06:20:53;11.85;;;1.67;;
65328;SDS011;51941;52.210;5.158;2023-04-25T06:23:23;10.20;;;1.50;;
65328;SDS011;51941;52.210;5.158;2023-04-25T06:25:54;15.43;;;1.80;;
65328;SDS011;51941;52.210;5.158;2023-04-25T06:28:21;9.10;;;1.20;;
65328;SDS011;51941;52.210;5.158;2023-04-25T06:30:49;12.35;;;1.60;;
65328;SDS011;51941;52.210;5.158;2023-04-25T06:33:18;8.50;;;1.25;;
65328;SDS011;51941;52.210;5.158;2023-04-25T06:35:45;8.75;;;1.40;;
65328;SDS011;51941;52.210;5.158;2023-04-25T06:38:15;6.72;;;1.27;;
65328;SDS011;51941;52.210;5.158;2023-04-25T06:40:48;7.45;;;1.20;;
65328;SDS011;51941;52.210;5.158;2023-04-25T06:43:16;8.48;;;0.98;;
65328;SDS011;51941;52.210;5.158;2023-04-25T06:45:55;15.38;;;1.60;;
65328;SDS011;51941;52.210;5.158;2023-04-25T06:48:24;10.45;;;1.70;;
65328;SDS011;51941;52.210;5.158;2023-04-25T06:50:52;10.05;;;1.48;;
65328;SDS011;51941;52.210;5.158;2023-04-25T06:53:18;7.75;;;1.33;;
65328;SDS011;51941;52.210;5.158;2023-04-25T06:55:51;8.52;;;1.15;;
65328;SDS011;51941;52.210;5.158;2023-04-25T06:58:21;14.32;;;1.58;;
65328;SDS011;51941;52.210;5.158;2023-04-25T07:01:10;10.63;;;1.50;;
65328;SDS011;51941;52.210;5.158;2023-04-25T07:03:37;10.00;;;1.42;;
65328;SDS011;51941;52.210;5.158;2023-04-25T07:06:08;12.75;;;1.70;;
65328;SDS011;51941;52.210;5.158;2023-04-25T07:08:35;9.90;;;1.67;;
65328;SDS011;51941;52.210;5.158;2023-04-25T07:11:03;7.57;;;1.23;;
65328;SDS011;51941;52.210;5.158;2023-04-25T07:13:30;8.68;;;1.17;;
65328;SDS011;51941;52.210;5.158;2023-04-25T07:16:00;8.90;;;1.02;;
65328;SDS011;51941;52.210;5.158;2023-04-25T07:18:32;6.05;;;1.20;;
65328;SDS011;51941;52.210;5.158;2023-04-25T07:21:00;6.13;;;1.05;;
65328;SDS011;51941;52.210;5.158;2023-04-25T07:23:27;7.95;;;1.42;;
65328;SDS011;51941;52.210;5.158;2023-04-25T07:25:59;6.72;;;1.23;;
65328;SDS011;51941;52.210;5.158;2023-04-25T07:28:28;8.23;;;1.35;;
65328;SDS011;51941;52.210;5.158;2023-04-25T07:30:54;6.20;;;1.20;;
65328;SDS011;51941;52.210;5.158;2023-04-25T07:33:24;8.32;;;1.77;;
65328;SDS011;51941;52.210;5.158;2023-04-25T07:35:50;7.28;;;1.20;;
65328;SDS011;51941;52.210;5.158;2023-04-25T07:38:19;6.68;;;1.08;;
65328;SDS011;51941;52.210;5.158;2023-04-25T07:40:46;7.35;;;1.80;;
65328;SDS011;51941;52.210;5.158;2023-04-25T07:43:14;5.70;;;0.90;;
65328;SDS011;51941;52.210;5.158;2023-04-25T07:45:55;6.40;;;1.08;;
65328;SDS011;51941;52.210;5.158;2023-04-25T07:48:25;12.25;;;1.52;;
65328;SDS011;51941;52.210;5.158;2023-04-25T07:50:52;9.20;;;1.20;;
65328;SDS011;51941;52.210;5.158;2023-04-25T07:53:19;7.05;;;1.33;;
65328;SDS011;51941;52.210;5.158;2023-04-25T07:55:51;6.57;;;0.98;;
65328;SDS011;51941;52.210;5.158;2023-04-25T07:58:19;6.72;;;1.17;;
65328;SDS011;51941;52.210;5.158;2023-04-25T08:00:50;11.20;;;1.35;;
65328;SDS011;51941;52.210;5.158;2023-04-25T08:03:38;12.80;;;1.50;;
65328;SDS011;51941;52.210;5.158;2023-04-25T08:06:12;8.05;;;1.25;;
65328;SDS011;51941;52.210;5.158;2023-04-25T08:08:49;9.23;;;1.25;;
65328;SDS011;51941;52.210;5.158;2023-04-25T08:11:19;8.43;;;1.33;;
65328;SDS011;51941;52.210;5.158;2023-04-25T08:13:46;10.65;;;1.42;;
65328;SDS011;51941;52.210;5.158;2023-04-25T08:16:13;10.95;;;1.10;;
65328;SDS011;51941;52.210;5.158;2023-04-25T08:18:42;6.15;;;1.08;;
65328;SDS011;51941;52.210;5.158;2023-04-25T08:21:09;8.32;;;1.40;;
65328;SDS011;51941;52.210;5.158;2023-04-25T08:23:36;7.50;;;0.85;;
65328;SDS011;51941;52.210;5.158;2023-04-25T08:26:10;7.47;;;1.33;;
65328;SDS011;51941;52.210;5.158;2023-04-25T08:28:38;7.32;;;1.10;;
65328;SDS011;51941;52.210;5.158;2023-04-25T08:31:04;6.18;;;1.30;;
65328;SDS011;51941;52.210;5.158;2023-04-25T08:33:42;5.60;;;1.15;;
65328;SDS011;51941;52.210;5.158;2023-04-25T08:36:35;8.73;;;1.40;;
65328;SDS011;51941;52.210;5.158;2023-04-25T08:39:35;7.88;;;1.20;;
65328;SDS011;51941;52.210;5.158;2023-04-25T08:42:22;6.57;;;1.05;;
65328;SDS011;51941;52.210;5.158;2023-04-25T08:44:50;4.63;;;0.70;;
65328;SDS011;51941;52.210;5.158;2023-04-25T08:47:19;3.90;;;0.52;;
65328;SDS011;51941;52.210;5.158;2023-04-25T08:49:54;5.28;;;0.70;;
65328;SDS011;51941;52.210;5.158;2023-04-25T08:52:23;3.97;;;0.60;;
65328;SDS011;51941;52.210;5.158;2023-04-25T08:57:19;8.57;;;1.30;;
65328;SDS011;51941;52.210;5.158;2023-04-25T08:59:48;9.45;;;1.15;;
65328;SDS011;51941;52.210;5.158;2023-04-25T09:02:15;3.42;;;0.82;;
65328;SDS011;51941;52.210;5.158;2023-04-25T09:04:47;5.90;;;1.00;;
65328;SDS011;51941;52.210;5.158;2023-04-25T09:07:16;4.15;;;0.80;;
65328;SDS011;51941;52.210;5.158;2023-04-25T09:09:46;9.50;;;1.00;;
65328;SDS011;51941;52.210;5.158;2023-04-25T09:12:16;8.65;;;1.40;;
65328;SDS011;51941;52.210;5.158;2023-04-25T09:14:46;8.65;;;0.90;;
65328;SDS011;51941;52.210;5.158;2023-04-25T09:17:43;7.10;;;1.00;;
65328;SDS011;51941;52.210;5.158;2023-04-25T09:20:12;6.93;;;1.25;;
65328;SDS011;51941;52.210;5.158;2023-04-25T09:22:41;5.95;;;1.00;;
65328;SDS011;51941;52.210;5.158;2023-04-25T09:25:08;4.20;;;1.23;;
65328;SDS011;51941;52.210;5.158;2023-04-25T09:27:48;4.75;;;1.00;;
65328;SDS011;51941;52.210;5.158;2023-04-25T09:30:28;4.00;;;0.98;;
65328;SDS011;51941;52.210;5.158;2023-04-25T09:33:05;6.18;;;1.20;;
65328;SDS011;51941;52.210;5.158;2023-04-25T09:35:35;8.27;;;1.10;;
65328;SDS011;51941;52.210;5.158;2023-04-25T09:38:09;5.65;;;1.00;;
65328;SDS011;51941;52.210;5.158;2023-04-25T09:40:59;4.28;;;1.58;;
65328;SDS011;51941;52.210;5.158;2023-04-25T09:43:45;5.53;;;0.85;;
65328;SDS011;51941;52.210;5.158;2023-04-25T09:46:12;4.68;;;0.95;;
65328;SDS011;51941;52.210;5.158;2023-04-25T09:48:47;8.23;;;1.00;;
65328;SDS011;51941;52.210;5.158;2023-04-25T09:51:14;2.95;;;0.90;;
65328;SDS011;51941;52.210;5.158;2023-04-25T09:53:45;3.72;;;0.82;;
65328;SDS011;51941;52.210;5.158;2023-04-25T09:56:30;7.72;;;1.00;;
65328;SDS011;51941;52.210;5.158;2023-04-25T09:59:04;3.70;;;0.85;;
65328;SDS011;51941;52.210;5.158;2023-04-25T10:01:33;4.38;;;0.90;;
65328;SDS011;51941;52.210;5.158;2023-04-25T10:04:07;7.97;;;0.93;;
65328;SDS011;51941;52.210;5.158;2023-04-25T10:07:00;4.30;;;0.88;;
65328;SDS011;51941;52.210;5.158;2023-04-25T10:09:29;7.15;;;1.00;;
65328;SDS011;51941;52.210;5.158;2023-04-25T10:11:59;2.25;;;0.65;;
65328;SDS011;51941;52.210;5.158;2023-04-25T10:14:26;3.60;;;0.70;;
65328;SDS011;51941;52.210;5.158;2023-04-25T10:16:52;3.70;;;0.70;;
65328;SDS011;51941;52.210;5.158;2023-04-25T10:19:20;5.00;;;0.82;;
65328;SDS011;51941;52.210;5.158;2023-04-25T10:21:50;5.13;;;0.80;;
65328;SDS011;51941;52.210;5.158;2023-04-25T10:24:18;5.82;;;0.85;;
65328;SDS011;51941;52.210;5.158;2023-04-25T10:26:47;3.22;;;0.60;;
65328;SDS011;51941;52.210;5.158;2023-04-25T10:29:21;3.03;;;0.63;;
65328;SDS011;51941;52.210;5.158;2023-04-25T10:31:49;4.22;;;0.80;;
65328;SDS011;51941;52.210;5.158;2023-04-25T10:34:15;3.85;;;0.80;;
65328;SDS011;51941;52.210;5.158;2023-04-25T10:36:42;4.97;;;0.80;;
65328;SDS011;51941;52.210;5.158;2023-04-25T10:39:15;4.93;;;0.68;;
65328;SDS011;51941;52.210;5.158;2023-04-25T10:41:53;10.93;;;1.00;;
65328;SDS011;51941;52.210;5.158;2023-04-25T10:44:22;5.32;;;0.90;;
65328;SDS011;51941;52.210;5.158;2023-04-25T10:46:48;4.30;;;0.70;;
65328;SDS011;51941;52.210;5.158;2023-04-25T10:49:28;5.07;;;0.70;;
65328;SDS011;51941;52.210;5.158;2023-04-25T10:52:12;5.82;;;0.70;;
65328;SDS011;51941;52.210;5.158;2023-04-25T10:54:41;3.03;;;0.60;;
65328;SDS011;51941;52.210;5.158;2023-04-25T10:59:57;2.40;;;0.40;;
65328;SDS011;51941;52.210;5.158;2023-04-25T11:02:30;4.05;;;0.63;;
65328;SDS011;51941;52.210;5.158;2023-04-25T11:04:57;3.63;;;0.75;;
65328;SDS011;51941;52.210;5.158;2023-04-25T11:07:27;4.85;;;0.68;;
65328;SDS011;51941;52.210;5.158;2023-04-25T11:10:01;2.97;;;0.57;;
65328;SDS011;51941;52.210;5.158;2023-04-25T11:12:31;4.78;;;0.77;;
65328;SDS011;51941;52.210;5.158;2023-04-25T11:14:58;4.78;;;0.70;;
65328;SDS011;51941;52.210;5.158;2023-04-25T11:17:26;5.22;;;0.65;;
65328;SDS011;51941;52.210;5.158;2023-04-25T11:19:53;4.45;;;0.90;;
65328;SDS011;51941;52.210;5.158;2023-04-25T11:22:21;2.83;;;0.68;;
65328;SDS011;51941;52.210;5.158;2023-04-25T11:24:48;4.43;;;0.80;;
65328;SDS011;51941;52.210;5.158;2023-04-25T11:27:15;4.25;;;1.05;;
65328;SDS011;51941;52.210;5.158;2023-04-25T11:29:43;4.43;;;1.00;;
65328;SDS011;51941;52.210;5.158;2023-04-25T11:32:10;5.10;;;1.20;;
65328;SDS011;51941;52.210;5.158;2023-04-25T11:34:37;7.57;;;0.85;;
65328;SDS011;51941;52.210;5.158;2023-04-25T11:37:03;3.70;;;0.68;;
65328;SDS011;51941;52.210;5.158;2023-04-25T11:39:31;2.95;;;0.60;;
65328;SDS011;51941;52.210;5.158;2023-04-25T11:41:58;3.67;;;0.70;;
65328;SDS011;51941;52.210;5.158;2023-04-25T11:44:26;5.30;;;0.65;;
65328;SDS011;51941;52.210;5.158;2023-04-25T11:46:54;3.25;;;0.65;;
65328;SDS011;51941;52.210;5.158;2023-04-25T11:49:21;7.10;;;0.90;;
65328;SDS011;51941;52.210;5.158;2023-04-25T11:51:49;3.90;;;0.80;;
65328;SDS011;51941;52.210;5.158;2023-04-25T11:54:16;4.70;;;0.82;;
65328;SDS011;51941;52.210;5.158;2023-04-25T11:56:43;4.97;;;0.70;;
65328;SDS011;51941;52.210;5.158;2023-04-25T11:59:11;6.88;;;0.80;;
65328;SDS011;51941;52.210;5.158;2023-04-25T12:01:38;3.10;;;0.70;;
65328;SDS011;51941;52.210;5.158;2023-04-25T12:04:14;5.32;;;1.00;;
65328;SDS011;51941;52.210;5.158;2023-04-25T12:06:43;6.85;;;1.20;;
65328;SDS011;51941;52.210;5.158;2023-04-25T12:09:11;5.95;;;1.10;;
65328;SDS011;51941;52.210;5.158;2023-04-25T12:11:42;3.75;;;0.85;;
65328;SDS011;51941;52.210;5.158;2023-04-25T12:14:10;8.57;;;1.05;;
65328;SDS011;51941;52.210;5.158;2023-04-25T12:16:40;7.28;;;1.10;;
65328;SDS011;51941;52.210;5.158;2023-04-25T12:19:08;6.13;;;1.23;;
65328;SDS011;51941;52.210;5.158;2023-04-25T12:21:36;3.38;;;0.55;;
65328;SDS011;51941;52.210;5.158;2023-04-25T12:24:10;3.88;;;0.80;;
65328;SDS011;51941;52.210;5.158;2023-04-25T12:26:50;4.53;;;0.70;;
65328;SDS011;51941;52.210;5.158;2023-04-25T12:29:19;8.07;;;0.90;;
65328;SDS011;51941;52.210;5.158;2023-04-25T12:31:47;4.80;;;0.90;;
65328;SDS011;51941;52.210;5.158;2023-04-25T12:34:13;6.78;;;1.13;;
65328;SDS011;51941;52.210;5.158;2023-04-25T12:36:42;6.28;;;0.70;;
65328;SDS011;51941;52.210;5.158;2023-04-25T12:39:13;2.35;;;0.65;;
65328;SDS011;51941;52.210;5.158;2023-04-25T12:41:41;4.53;;;1.17;;
65328;SDS011;51941;52.210;5.158;2023-04-25T12:44:08;8.93;;;0.93;;
65328;SDS011;51941;52.210;5.158;2023-04-25T12:46:35;6.85;;;1.33;;
65328;SDS011;51941;52.210;5.158;2023-04-25T12:49:02;6.85;;;1.13;;
65328;SDS011;51941;52.210;5.158;2023-04-25T12:51:29;6.43;;;1.10;;
65328;SDS011;51941;52.210;5.158;2023-04-25T12:53:59;4.68;;;0.80;;
65328;SDS011;51941;52.210;5.158;2023-04-25T12:56:26;5.28;;;0.70;;
65328;SDS011;51941;52.210;5.158;2023-04-25T12:58:53;4.63;;;0.70;;
65328;SDS011;51941;52.210;5.158;2023-04-25T13:01:19;5.20;;;0.60;;
65328;SDS011;51941;52.210;5.158;2023-04-25T13:03:46;2.10;;;0.65;;
65328;SDS011;51941;52.210;5.158;2023-04-25T13:06:14;4.57;;;0.82;;
65328;SDS011;51941;52.210;5.158;2023-04-25T13:08:41;4.57;;;0.70;;
65328;SDS011;51941;52.210;5.158;2023-04-25T13:11:09;7.03;;;0.70;;
65328;SDS011;51941;52.210;5.158;2023-04-25T13:13:36;2.25;;;0.70;;
65328;SDS011;51941;52.210;5.158;2023-04-25T13:16:03;6.03;;;0.77;;
65328;SDS011;51941;52.210;5.158;2023-04-25T13:18:31;2.53;;;0.60;;
65328;SDS011;51941;52.210;5.158;2023-04-25T13:20:58;4.30;;;0.93;;
65328;SDS011;51941;52.210;5.158;2023-04-25T13:23:26;4.18;;;0.88;;
65328;SDS011;51941;52.210;5.158;2023-04-25T13:25:53;6.32;;;1.27;;
65328;SDS011;51941;52.210;5.158;2023-04-25T13:28:21;10.45;;;1.05;;
65328;SDS011;51941;52.210;5.158;2023-04-25T13:30:48;4.57;;;0.98;;
65328;SDS011;51941;52.210;5.158;2023-04-25T13:33:15;6.70;;;1.10;;
65328;SDS011;51941;52.210;5.158;2023-04-25T13:35:42;4.97;;;0.70;;
65328;SDS011;51941;52.210;5.158;2023-04-25T13:40:38;3.50;;;0.82;;
65328;SDS011;51941;52.210;5.158;2023-04-25T13:43:05;5.22;;;1.30;;
65328;SDS011;51941;52.210;5.158;2023-04-25T13:45:33;6.20;;;1.98;;
65328;SDS011;51941;52.210;5.158;2023-04-25T13:48:00;3.95;;;1.25;;
65328;SDS011;51941;52.210;5.158;2023-04-25T13:50:26;4.60;;;1.10;;
65328;SDS011;51941;52.210;5.158;2023-04-25T13:52:53;4.38;;;1.10;;
65328;SDS011;51941;52.210;5.158;2023-04-25T13:55:20;5.07;;;0.75;;
65328;SDS011;51941;52.210;5.158;2023-04-25T13:57:46;4.45;;;0.70;;
65328;SDS011;51941;52.210;5.158;2023-04-25T14:00:13;7.65;;;0.98;;
65328;SDS011;51941;52.210;5.158;2023-04-25T14:02:42;4.07;;;1.02;;
65328;SDS011;51941;52.210;5.158;2023-04-25T14:05:09;3.25;;;0.77;;
65328;SDS011;51941;52.210;5.158;2023-04-25T14:07:36;11.07;;;1.02;;
65328;SDS011;51941;52.210;5.158;2023-04-25T14:10:03;9.77;;;1.10;;
65328;SDS011;51941;52.210;5.158;2023-04-25T14:12:30;4.75;;;1.25;;
65328;SDS011;51941;52.210;5.158;2023-04-25T14:15:00;4.53;;;0.80;;
65328;SDS011;51941;52.210;5.158;2023-04-25T14:17:26;7.60;;;1.10;;
65328;SDS011;51941;52.210;5.158;2023-04-25T14:19:54;3.35;;;0.90;;
65328;SDS011;51941;52.210;5.158;2023-04-25T14:22:21;8.63;;;1.10;;
65328;SDS011;51941;52.210;5.158;2023-04-25T14:24:48;4.65;;;0.70;;
65328;SDS011;51941;52.210;5.158;2023-04-25T14:27:14;3.70;;;0.73;;
65328;SDS011;51941;52.210;5.158;2023-04-25T14:29:41;4.80;;;0.90;;
65328;SDS011;51941;52.210;5.158;2023-04-25T14:32:08;2.33;;;0.65;;
65328;SDS011;51941;52.210;5.158;2023-04-25T14:34:35;7.22;;;0.88;;
65328;SDS011;51941;52.210;5.158;2023-04-25T14:37:03;6.40;;;0.77;;
65328;SDS011;51941;52.210;5.158;2023-04-25T14:39:30;2.60;;;0.70;;
65328;SDS011;51941;52.210;5.158;2023-04-25T14:41:56;6.20;;;0.63;;
65328;SDS011;51941;52.210;5.158;2023-04-25T14:44:23;4.75;;;1.02;;
65328;SDS011;51941;52.210;5.158;2023-04-25T14:46:50;4.30;;;0.90;;
65328;SDS011;51941;52.210;5.158;2023-04-25T14:49:17;2.20;;;0.68;;
65328;SDS011;51941;52.210;5.158;2023-04-25T14:51:44;3.45;;;0.70;;
65328;SDS011;51941;52.210;5.158;2023-04-25T14:54:12;1.75;;;0.68;;
65328;SDS011;51941;52.210;5.158;2023-04-25T14:56:38;5.85;;;0.80;;
65328;SDS011;51941;52.210;5.158;2023-04-25T14:59:05;5.03;;;1.05;;
65328;SDS011;51941;52.210;5.158;2023-04-25T15:01:32;2.67;;;0.63;;
65328;SDS011;51941;52.210;5.158;2023-04-25T15:03:59;5.18;;;1.58;;
65328;SDS011;51941;52.210;5.158;2023-04-25T15:06:26;2.45;;;0.70;;
65328;SDS011;51941;52.210;5.158;2023-04-25T15:08:55;1.98;;;0.60;;
65328;SDS011;51941;52.210;5.158;2023-04-25T15:11:24;3.67;;;0.90;;
65328;SDS011;51941;52.210;5.158;2023-04-25T15:13:51;4.32;;;0.70;;